Bitter Creek, Wyoming
Current Conditions -  °F | °C
As of 5:54 AM on Thursday 27 Nov 2014 (Local Time) from KRKS Reporting Station
Clear Clear  
Wind Chill: 30°   Ceiling: Unl
Heat Index: 35°   Visibility: 10mi
Dew Point: 19°   Wind: 6mph
Humidity: 52%   Direction: 80°E
Pressure: 30.31"   Gusts: NA
Location:  41.6045°N, 108.954°W
Report Text: KRKS 271254Z AUTO 08005KT 10SM CLR 02/M07 A3031 RMK AO2 SLP264 T00171072
Loading
Personal Weather Stations






























Interactive Weather Map New forecast layout! Learn more

10-Day Weather Forecast

Advertisements
Track Severe Weather on mobile